createdAt,value
2023-12-20T00:01:25.134Z,96114.09
2023-12-20T00:03:53.510Z,96108.97
2023-12-20T00:06:21.616Z,96096.81
2023-12-20T00:08:49.893Z,96087.66
2023-12-20T00:11:17.861Z,96087.56
2023-12-20T00:13:48.546Z,96082.84
2023-12-20T00:16:19.619Z,96083.25
2023-12-20T00:18:47.754Z,96068.69
2023-12-20T00:21:15.968Z,96071.97
2023-12-20T00:23:43.943Z,96072.84
2023-12-20T00:26:11.883Z,96078.44
2023-12-20T00:28:40.054Z,96064.69
2023-12-20T00:31:08.259Z,96061.06
2023-12-20T00:33:37.867Z,96060.28
2023-12-20T00:36:07.063Z,96061.06
2023-12-20T00:38:35.152Z,96055.16
2023-12-20T00:41:03.514Z,96053.94
2023-12-20T00:43:31.482Z,96063.19
2023-12-20T00:46:01.343Z,96058.78
2023-12-20T00:48:31.539Z,96039.09
2023-12-20T00:51:01.085Z,96057.09
2023-12-20T00:53:29.035Z,96057.28
2023-12-20T00:55:57.219Z,96053.72
2023-12-20T00:58:25.170Z,96059.66
2023-12-20T01:00:53.334Z,96056.31
2023-12-20T01:03:21.473Z,96056.78
2023-12-20T01:05:49.631Z,96066.91
2023-12-20T01:08:19.007Z,96070.16
2023-12-20T01:10:48.089Z,96055.00
2023-12-20T01:13:16.352Z,96049.28
2023-12-20T01:15:44.484Z,96047.22
2023-12-20T01:18:12.532Z,96045.94
2023-12-20T01:20:40.493Z,96043.16
2023-12-20T01:23:08.479Z,96055.69
2023-12-20T01:25:37.907Z,96048.03
2023-12-20T01:28:06.527Z,96067.00
2023-12-20T01:30:34.548Z,96055.41
2023-12-20T01:33:03.131Z,96055.84
2023-12-20T01:35:31.224Z,96063.38
2023-12-20T01:37:59.273Z,96052.00
2023-12-20T01:40:27.283Z,96055.53
2023-12-20T01:43:03.655Z,96059.97
2023-12-20T01:45:31.611Z,96059.16
2023-12-20T01:48:01.312Z,96058.22
2023-12-20T01:50:29.895Z,96063.63
2023-12-20T01:52:58.945Z,96056.47
2023-12-20T01:55:27.734Z,96065.00
2023-12-20T01:57:56.110Z,96061.22
2023-12-20T02:00:27.682Z,96074.97
2023-12-20T02:02:56.409Z,96077.78
2023-12-20T02:05:23.923Z,96074.75
2023-12-20T02:07:51.912Z,96068.94
2023-12-20T02:10:20.307Z,96058.16
2023-12-20T02:12:48.287Z,96050.88
2023-12-20T02:15:16.545Z,96067.31
2023-12-20T02:17:46.486Z,96046.84
2023-12-20T02:20:14.571Z,96050.84
2023-12-20T02:22:43.903Z,96050.75
2023-12-20T02:25:12.048Z,96037.38
2023-12-20T02:27:40.942Z,96039.63
2023-12-20T02:30:09.421Z,96034.22
2023-12-20T02:32:37.425Z,96026.63
2023-12-20T02:35:06.003Z,96012.47
2023-12-20T02:37:35.196Z,96031.53
2023-12-20T02:40:05.583Z,96023.53
2023-12-20T02:42:33.583Z,96024.56
2023-12-20T02:45:01.531Z,96030.13
2023-12-20T02:47:30.886Z,96023.34
2023-12-20T02:49:59.158Z,96012.63
2023-12-20T02:52:27.526Z,96010.44
2023-12-20T02:54:55.527Z,96007.88
2023-12-20T02:57:24.842Z,96006.50
2023-12-20T02:59:52.783Z,96004.78
2023-12-20T03:02:20.739Z,96006.88
2023-12-20T03:04:48.962Z,96001.25
2023-12-20T03:07:17.052Z,96005.13
2023-12-20T03:09:59.710Z,95991.25
2023-12-20T03:12:34.416Z,95995.13
2023-12-20T03:15:02.487Z,95993.16
2023-12-20T03:17:30.437Z,95996.09
2023-12-20T03:19:58.542Z,95990.69
2023-12-20T03:22:26.618Z,95989.88
2023-12-20T03:24:54.605Z,95983.03
2023-12-20T03:27:22.594Z,95994.13
2023-12-20T03:29:51.970Z,95984.16
2023-12-20T03:32:19.936Z,95973.59
2023-12-20T03:34:48.014Z,95964.19
2023-12-20T03:37:16.122Z,95966.00
2023-12-20T03:39:44.158Z,95961.25
2023-12-20T03:42:12.096Z,95967.78
2023-12-20T03:44:40.819Z,95981.13
2023-12-20T03:47:10.222Z,95971.41
2023-12-20T03:49:39.818Z,95966.81
2023-12-20T03:52:07.957Z,95971.00
2023-12-20T03:54:37.133Z,95979.59
2023-12-20T03:57:05.608Z,95969.84
2023-12-20T03:59:37.207Z,95974.75
2023-12-20T04:02:05.418Z,95963.06
2023-12-20T04:04:34.962Z,95969.78
2023-12-20T04:07:03.070Z,95976.13
2023-12-20T04:09:31.357Z,95979.66
2023-12-20T04:11:59.372Z,95971.22
2023-12-20T04:14:27.318Z,95976.88
2023-12-20T04:16:55.828Z,95975.97
2023-12-20T04:19:23.894Z,95975.81
2023-12-20T04:21:53.299Z,95975.81
2023-12-20T04:24:21.570Z,95980.72
2023-12-20T04:26:49.542Z,95980.72
2023-12-20T04:29:17.494Z,95986.63
2023-12-20T04:31:45.569Z,95984.75
2023-12-20T04:34:13.620Z,95987.00
2023-12-20T04:36:41.709Z,95986.13
2023-12-20T04:39:11.117Z,95991.09
2023-12-20T04:41:39.139Z,95989.81
2023-12-20T04:44:07.892Z,95995.94
2023-12-20T04:46:36.634Z,95992.91
2023-12-20T04:49:05.200Z,95993.56
2023-12-20T04:51:35.429Z,95984.81
2023-12-20T04:54:03.610Z,95982.34
2023-12-20T04:56:32.958Z,95974.09
2023-12-20T04:59:00.946Z,95979.56
2023-12-20T05:01:29.024Z,95983.59
2023-12-20T05:03:57.140Z,95977.59
2023-12-20T05:06:25.918Z,95976.88
2023-12-20T05:08:53.893Z,95978.09
2023-12-20T05:11:21.882Z,95974.88
2023-12-20T05:13:51.351Z,95972.59
2023-12-20T05:16:20.386Z,95967.44
2023-12-20T05:18:51.017Z,95979.22
2023-12-20T05:21:19.046Z,95974.56
2023-12-20T05:23:47.788Z,95973.84
2023-12-20T05:26:15.840Z,95991.44
2023-12-20T05:28:43.791Z,96000.06
2023-12-20T05:31:13.267Z,95999.81
2023-12-20T05:33:41.368Z,95999.00
2023-12-20T05:36:12.497Z,96016.56
2023-12-20T05:38:40.554Z,96007.19
2023-12-20T05:41:08.539Z,96010.84
2023-12-20T05:43:36.542Z,96018.38
2023-12-20T05:46:04.779Z,96016.31
2023-12-20T05:48:34.221Z,96022.88
2023-12-20T05:51:02.248Z,96016.97
2023-12-20T05:53:30.196Z,96015.41
2023-12-20T05:55:58.146Z,96026.53
2023-12-20T05:58:26.150Z,96025.47
2023-12-20T06:00:54.207Z,96027.84
2023-12-20T06:03:22.193Z,96031.06
2023-12-20T06:05:52.955Z,96025.97
2023-12-20T06:08:22.198Z,96021.19
2023-12-20T06:10:50.389Z,96024.59
2023-12-20T06:13:18.456Z,96024.69
2023-12-20T06:15:46.468Z,96017.59
2023-12-20T06:18:14.594Z,96014.56
2023-12-20T06:20:42.602Z,96008.53
2023-12-20T06:23:11.964Z,95998.47
2023-12-20T06:25:40.078Z,95989.88
2023-12-20T06:28:09.109Z,96002.50
2023-12-20T06:30:37.246Z,96006.47
2023-12-20T06:33:08.124Z,95998.81
2023-12-20T06:35:37.292Z,96012.53
2023-12-20T06:38:09.044Z,96018.28
2023-12-20T06:40:38.821Z,96015.97
2023-12-20T06:43:12.808Z,96008.88
2023-12-20T06:45:49.229Z,96016.06
2023-12-20T06:48:17.390Z,96008.47
2023-12-20T06:50:45.369Z,96012.03
2023-12-20T06:53:13.466Z,96012.97
2023-12-20T06:55:42.977Z,96020.25
2023-12-20T06:58:11.056Z,96000.44
2023-12-20T07:00:39.377Z,96023.09
2023-12-20T07:03:07.530Z,96023.44
2023-12-20T07:05:35.600Z,96023.50
2023-12-20T07:08:03.767Z,96034.63
2023-12-20T07:10:32.050Z,96033.91
2023-12-20T07:13:01.854Z,96039.13
2023-12-20T07:15:30.769Z,95996.88
2023-12-20T07:18:02.213Z,96052.38
2023-12-20T07:20:30.410Z,96048.31
2023-12-20T07:22:58.495Z,96056.97
2023-12-20T07:25:27.015Z,96063.25
2023-12-20T07:27:55.458Z,96065.69
2023-12-20T07:30:25.086Z,96065.56
2023-12-20T07:32:53.631Z,96081.16
2023-12-20T07:35:21.805Z,96080.25
2023-12-20T07:37:49.956Z,96069.84
2023-12-20T07:40:18.652Z,96076.47
2023-12-20T07:42:46.700Z,96086.38
2023-12-20T07:45:14.763Z,96085.16
2023-12-20T07:47:44.400Z,96075.03
2023-12-20T07:50:12.820Z,96084.56
2023-12-20T07:52:40.833Z,96077.78
2023-12-20T07:55:09.881Z,96091.19
2023-12-20T07:57:38.044Z,96085.44
2023-12-20T08:00:07.458Z,96091.41
2023-12-20T08:02:35.503Z,96091.56
2023-12-20T08:05:05.267Z,96101.44
2023-12-20T08:07:33.389Z,96095.88
2023-12-20T08:10:02.003Z,96105.22
2023-12-20T08:12:30.189Z,96094.50
2023-12-20T08:14:58.405Z,96087.94
2023-12-20T08:17:26.556Z,96104.63
2023-12-20T08:19:54.612Z,96107.06
2023-12-20T08:22:24.345Z,96089.81
2023-12-20T08:24:52.451Z,96092.41
2023-12-20T08:27:20.650Z,96105.00
2023-12-20T08:29:48.815Z,96117.44
2023-12-20T08:32:16.791Z,96101.38
2023-12-20T08:34:44.825Z,96107.84
2023-12-20T08:37:12.963Z,96116.22
2023-12-20T08:39:45.723Z,96125.69
2023-12-20T08:42:14.078Z,96121.56
2023-12-20T08:44:42.069Z,96127.84
2023-12-20T08:47:14.295Z,96122.00
2023-12-20T08:49:42.470Z,96128.03
2023-12-20T08:52:10.610Z,96127.28
2023-12-20T08:54:38.857Z,96130.50
2023-12-20T08:57:08.286Z,96126.56
2023-12-20T08:59:36.249Z,96122.63
2023-12-20T09:02:04.340Z,96141.16
2023-12-20T09:04:32.455Z,96151.41
2023-12-20T09:07:02.244Z,96154.06
2023-12-20T09:09:30.299Z,96149.00
2023-12-20T09:11:59.388Z,96140.75
2023-12-20T09:14:31.437Z,96139.13
2023-12-20T09:16:59.648Z,96145.94
2023-12-20T09:19:28.440Z,96148.44
2023-12-20T09:21:56.595Z,96155.91
2023-12-20T09:24:24.565Z,96148.97
2023-12-20T09:26:52.712Z,96159.69
2023-12-20T09:29:20.721Z,96153.25
2023-12-20T09:31:51.251Z,96157.28
2023-12-20T09:34:19.364Z,96155.25
2023-12-20T09:36:49.616Z,96135.84
2023-12-20T09:39:20.290Z,96140.34
2023-12-20T09:41:52.300Z,96134.06
2023-12-20T09:44:20.813Z,96130.34
2023-12-20T09:46:52.695Z,96117.06
2023-12-20T09:49:21.501Z,96128.72
2023-12-20T09:51:49.633Z,96124.34
2023-12-20T09:54:18.465Z,96123.53
2023-12-20T09:56:48.058Z,96105.19
2023-12-20T09:59:16.373Z,96110.81
2023-12-20T10:01:44.978Z,96108.75
2023-12-20T10:04:26.402Z,96102.75
2023-12-20T10:06:59.164Z,96106.31
2023-12-20T10:09:27.302Z,96095.50
2023-12-20T10:11:58.505Z,96099.59
2023-12-20T10:14:26.453Z,96102.56
2023-12-20T10:16:55.291Z,96092.34
2023-12-20T10:19:24.842Z,96077.16
2023-12-20T10:21:53.543Z,96087.16
2023-12-20T10:24:23.170Z,96070.34
2023-12-20T10:27:04.885Z,96069.78
2023-12-20T10:29:37.818Z,96068.63
2023-12-20T10:32:26.320Z,96064.94
2023-12-20T10:34:57.281Z,96073.94
2023-12-20T10:37:25.973Z,96074.00
2023-12-20T10:39:57.544Z,96077.97
2023-12-20T10:42:28.696Z,96075.38
2023-12-20T10:44:56.734Z,96075.91
2023-12-20T10:47:25.219Z,96071.81
2023-12-20T10:49:56.073Z,96064.28
2023-12-20T10:52:25.826Z,96051.41
2023-12-20T10:54:53.972Z,96050.91
2023-12-20T10:57:23.084Z,96046.53
2023-12-20T10:59:51.869Z,96043.78
2023-12-20T11:02:19.893Z,96037.59
2023-12-20T11:04:55.579Z,96037.69
2023-12-20T11:07:28.265Z,96026.28
2023-12-20T11:10:02.008Z,96023.53
2023-12-20T11:12:38.051Z,96022.41
2023-12-20T11:15:06.889Z,96044.34
2023-12-20T11:17:35.077Z,96030.81
2023-12-20T11:20:08.318Z,96028.72
2023-12-20T11:22:41.535Z,96028.81
2023-12-20T11:25:11.399Z,96026.94
2023-12-20T11:27:43.567Z,96020.69
2023-12-20T11:30:12.968Z,96032.28
2023-12-20T11:32:43.575Z,96036.56
2023-12-20T11:35:21.987Z,96045.78
2023-12-20T11:37:51.931Z,96044.94
2023-12-20T11:40:23.131Z,96042.41
2023-12-20T11:42:52.078Z,96030.38
2023-12-20T11:45:23.077Z,96041.81
2023-12-20T11:47:53.040Z,96043.47
2023-12-20T11:50:21.625Z,96034.63
2023-12-20T11:52:51.177Z,96041.38
2023-12-20T11:55:19.450Z,96044.22
2023-12-20T11:57:47.837Z,96052.34
2023-12-20T12:00:17.277Z,96029.31
2023-12-20T12:02:46.760Z,96026.47
2023-12-20T12:05:17.334Z,96034.63
2023-12-20T12:07:45.556Z,96039.00
2023-12-20T12:10:15.052Z,96030.00
2023-12-20T12:12:43.369Z,96044.31
2023-12-20T12:15:11.678Z,96046.53
2023-12-20T12:17:39.834Z,96034.63
2023-12-20T12:20:09.767Z,96043.69
2023-12-20T12:22:38.104Z,96031.63
2023-12-20T12:25:14.785Z,96039.72
2023-12-20T12:27:43.996Z,96039.16
2023-12-20T12:30:14.070Z,96050.16
2023-12-20T12:32:42.783Z,96034.53
2023-12-20T12:35:11.575Z,96033.50
2023-12-20T12:37:40.723Z,96021.41
2023-12-20T12:40:11.620Z,96012.13
2023-12-20T12:42:41.675Z,96002.22
2023-12-20T12:45:10.175Z,96008.38
2023-12-20T12:47:38.796Z,96004.44
2023-12-20T12:50:07.548Z,96018.44
2023-12-20T12:52:36.553Z,96021.66
2023-12-20T12:55:06.004Z,96023.34
2023-12-20T12:57:34.748Z,96007.72
2023-12-20T13:00:06.098Z,96014.41
2023-12-20T13:02:34.077Z,95996.78
2023-12-20T13:05:04.019Z,95993.16
2023-12-20T13:07:32.352Z,95990.50
2023-12-20T13:10:00.450Z,95990.19
2023-12-20T13:12:28.468Z,96003.00
2023-12-20T13:14:56.415Z,95999.50
2023-12-20T13:17:25.933Z,96001.13
2023-12-20T13:19:53.958Z,95990.28
2023-12-20T13:22:22.045Z,95981.56
2023-12-20T13:24:50.215Z,95996.59
2023-12-20T13:27:18.300Z,95984.22
2023-12-20T13:29:46.501Z,95977.81
2023-12-20T13:32:14.731Z,95972.03
2023-12-20T13:34:44.322Z,95982.25
2023-12-20T13:37:12.649Z,95986.34
2023-12-20T13:39:40.695Z,95991.31
2023-12-20T13:42:08.815Z,95981.19
2023-12-20T13:44:36.812Z,95978.94
2023-12-20T13:47:05.120Z,95983.13
2023-12-20T13:49:33.246Z,95976.22
2023-12-20T13:52:04.248Z,95976.56
2023-12-20T13:54:32.552Z,95965.56
2023-12-20T13:57:08.888Z,95974.25
2023-12-20T13:59:44.641Z,95981.34
2023-12-20T14:02:12.668Z,95977.97
2023-12-20T14:04:43.754Z,95986.34
2023-12-20T14:07:13.872Z,95981.94
2023-12-20T14:09:46.420Z,95985.50
2023-12-20T14:12:14.957Z,95976.50
2023-12-20T14:14:43.092Z,95971.81
2023-12-20T14:17:11.307Z,95982.88
2023-12-20T14:19:40.815Z,95968.59
2023-12-20T14:22:08.967Z,95967.63
2023-12-20T14:24:38.864Z,95955.44
2023-12-20T14:27:08.140Z,95968.22
2023-12-20T14:29:36.130Z,95973.44
2023-12-20T14:32:06.234Z,95967.94
2023-12-20T14:34:34.303Z,95976.13
2023-12-20T14:37:01.410Z,95985.50
2023-12-20T14:39:29.451Z,95976.91
2023-12-20T14:41:58.836Z,95991.28
2023-12-20T14:44:26.933Z,95973.69
2023-12-20T14:46:54.924Z,95977.94
2023-12-20T14:49:22.957Z,95957.69
2023-12-20T14:51:51.021Z,95974.69
2023-12-20T14:54:19.104Z,95986.56
2023-12-20T14:56:47.390Z,95982.56
2023-12-20T14:59:16.705Z,95981.97
2023-12-20T15:01:45.792Z,95989.34
2023-12-20T15:04:13.993Z,95987.19
2023-12-20T15:06:42.002Z,95992.13
2023-12-20T15:09:10.515Z,95999.22
2023-12-20T15:11:38.561Z,96010.28
2023-12-20T15:14:07.670Z,96016.91
2023-12-20T15:16:37.563Z,96030.06
2023-12-20T15:19:05.904Z,96025.75
2023-12-20T15:21:42.916Z,96019.13
2023-12-20T15:24:16.173Z,96007.94
2023-12-20T15:26:44.957Z,96006.81
2023-12-20T15:29:14.694Z,96004.34
2023-12-20T15:31:46.665Z,96011.41
2023-12-20T15:34:15.352Z,96005.19
2023-12-20T15:36:44.590Z,96026.97
2023-12-20T15:39:15.486Z,96024.50
2023-12-20T15:41:43.880Z,96026.13
2023-12-20T15:44:11.858Z,96033.72
2023-12-20T15:46:40.792Z,96023.16
2023-12-20T15:49:12.121Z,96003.97
2023-12-20T15:51:40.334Z,96012.91
2023-12-20T15:54:09.554Z,96029.66
2023-12-20T15:56:37.869Z,96037.81
2023-12-20T15:59:06.026Z,96026.34
2023-12-20T16:01:34.091Z,96026.25
2023-12-20T16:04:02.390Z,96040.09
2023-12-20T16:06:31.830Z,96047.69
2023-12-20T16:09:01.787Z,96028.69
2023-12-20T16:11:30.533Z,96021.84
2023-12-20T16:13:58.491Z,96044.38
2023-12-20T16:16:26.519Z,96050.41
2023-12-20T16:18:54.569Z,96052.19
2023-12-20T16:21:22.645Z,96052.81
2023-12-20T16:23:51.984Z,96056.63
2023-12-20T16:26:19.957Z,96046.03
2023-12-20T16:28:47.872Z,96040.81
2023-12-20T16:31:15.902Z,96056.31
2023-12-20T16:33:44.077Z,96073.09
2023-12-20T16:36:12.100Z,96062.84
2023-12-20T16:38:40.364Z,96073.91
2023-12-20T16:41:09.724Z,96075.69
2023-12-20T16:43:37.723Z,96080.19
2023-12-20T16:46:06.766Z,96072.53
2023-12-20T16:48:35.212Z,96078.88
2023-12-20T16:51:03.514Z,96084.06
2023-12-20T16:53:31.434Z,96087.59
2023-12-20T16:56:01.189Z,96077.00
2023-12-20T16:58:30.557Z,96077.00
2023-12-20T17:00:59.429Z,96065.81
2023-12-20T17:03:27.556Z,96068.19
2023-12-20T17:05:55.632Z,96067.63
2023-12-20T17:08:23.578Z,96072.09
2023-12-20T17:10:51.538Z,96078.53
2023-12-20T17:13:19.579Z,96087.81
2023-12-20T17:15:49.380Z,96085.28
2023-12-20T17:18:17.419Z,96107.41
2023-12-20T17:20:45.395Z,96110.69
2023-12-20T17:23:13.419Z,96110.63
2023-12-20T17:25:42.106Z,96119.97
2023-12-20T17:28:12.811Z,96117.19
2023-12-20T17:30:41.177Z,96112.94
2023-12-20T17:33:11.070Z,96088.66
2023-12-20T17:35:39.071Z,96109.69
2023-12-20T17:38:07.442Z,96116.56
2023-12-20T17:40:37.221Z,96114.00
2023-12-20T17:43:05.479Z,96125.03
2023-12-20T17:45:33.480Z,96104.19
2023-12-20T17:48:04.011Z,96114.78
2023-12-20T17:50:33.591Z,96112.16
2023-12-20T17:53:01.575Z,96102.50
2023-12-20T17:55:32.263Z,96107.75
2023-12-20T17:58:03.166Z,96112.28
2023-12-20T18:00:35.231Z,96114.91
2023-12-20T18:03:03.432Z,96124.28
2023-12-20T18:05:31.443Z,96132.31
2023-12-20T18:08:00.747Z,96122.50
2023-12-20T18:10:29.929Z,96128.50
2023-12-20T18:12:59.126Z,96120.16
2023-12-20T18:15:27.109Z,96117.06
2023-12-20T18:17:55.070Z,96119.59
2023-12-20T18:20:23.242Z,96114.53
2023-12-20T18:22:51.310Z,96110.28
2023-12-20T18:25:20.773Z,96104.19
2023-12-20T18:27:48.959Z,96113.22
2023-12-20T18:30:17.848Z,96110.66
2023-12-20T18:32:46.122Z,96111.19
2023-12-20T18:35:14.330Z,96121.69
2023-12-20T18:37:42.481Z,96115.56
2023-12-20T18:40:11.972Z,96127.44
2023-12-20T18:42:42.055Z,96118.03
2023-12-20T18:45:10.842Z,96119.94
2023-12-20T18:47:38.865Z,96136.72
2023-12-20T18:50:10.000Z,96125.69
2023-12-20T18:52:38.223Z,96117.44
2023-12-20T18:55:07.212Z,96122.69
2023-12-20T18:57:35.251Z,96115.06
2023-12-20T19:00:05.517Z,96107.22
2023-12-20T19:02:35.725Z,96113.94
2023-12-20T19:05:04.183Z,96116.41
2023-12-20T19:07:32.373Z,96104.69
2023-12-20T19:10:00.706Z,96116.81
2023-12-20T19:12:28.706Z,96107.63
2023-12-20T19:14:56.611Z,96124.16
2023-12-20T19:17:26.619Z,96097.78
2023-12-20T19:19:54.770Z,96115.75
2023-12-20T19:22:22.874Z,96112.41
2023-12-20T19:24:50.907Z,96118.41
2023-12-20T19:27:18.889Z,96121.44
2023-12-20T19:29:46.844Z,96119.72
2023-12-20T19:32:14.860Z,96102.81
2023-12-20T19:34:44.330Z,96134.63
2023-12-20T19:37:12.614Z,96133.81
2023-12-20T19:39:40.534Z,96122.91
2023-12-20T19:42:08.482Z,96117.84
2023-12-20T19:44:36.459Z,96114.44
2023-12-20T19:47:04.695Z,96110.41
2023-12-20T19:49:32.974Z,96119.34
2023-12-20T19:52:03.404Z,96101.88
2023-12-20T19:54:31.423Z,96108.38
2023-12-20T19:56:59.403Z,96102.69
2023-12-20T19:59:27.376Z,96105.34
2023-12-20T20:01:56.370Z,96102.03
2023-12-20T20:04:25.939Z,96109.63
2023-12-20T20:06:54.128Z,96113.19
2023-12-20T20:09:23.486Z,96115.69
2023-12-20T20:11:51.497Z,96120.25
2023-12-20T20:14:19.427Z,96119.34
2023-12-20T20:16:47.409Z,96117.84
2023-12-20T20:19:15.476Z,96117.84
2023-12-20T20:21:43.462Z,96115.13
2023-12-20T20:24:11.431Z,96117.03
2023-12-20T20:26:40.869Z,96140.38
2023-12-20T20:29:09.447Z,96131.34
2023-12-20T20:31:37.789Z,96122.78
2023-12-20T20:34:06.458Z,96113.59
2023-12-20T20:36:34.552Z,96112.59
2023-12-20T20:39:02.583Z,96098.78
2023-12-20T20:41:31.915Z,96115.94
2023-12-20T20:44:01.271Z,96106.78
2023-12-20T20:46:30.694Z,96084.06
2023-12-20T20:48:58.913Z,96121.63
2023-12-20T20:51:26.945Z,96111.47
2023-12-20T20:54:05.074Z,96119.09
2023-12-20T20:56:39.918Z,96111.28
2023-12-20T20:59:09.248Z,96105.59
2023-12-20T21:01:37.939Z,96105.03
2023-12-20T21:04:06.465Z,96103.94
2023-12-20T21:06:35.102Z,96109.06
2023-12-20T21:09:03.178Z,96110.16
2023-12-20T21:11:31.538Z,96104.53
2023-12-20T21:13:59.615Z,96117.91
2023-12-20T21:16:29.116Z,96105.34
2023-12-20T21:18:57.188Z,96105.03
2023-12-20T21:21:25.187Z,96109.31
2023-12-20T21:23:53.186Z,96096.13
2023-12-20T21:26:21.091Z,96105.78
2023-12-20T21:28:49.483Z,96102.16
2023-12-20T21:31:17.574Z,96102.81
2023-12-20T21:33:47.264Z,96086.63
2023-12-20T21:36:17.851Z,96090.69
2023-12-20T21:38:45.824Z,96093.50
2023-12-20T21:41:21.378Z,96083.97
2023-12-20T21:43:51.354Z,96083.03
2023-12-20T21:46:19.447Z,96086.38
2023-12-20T21:48:48.790Z,96082.06
2023-12-20T21:51:18.686Z,96073.59
2023-12-20T21:53:46.697Z,96076.88
2023-12-20T21:56:14.689Z,96070.94
2023-12-20T21:58:43.008Z,96086.03
2023-12-20T22:01:11.032Z,96081.66
2023-12-20T22:03:41.419Z,96069.72
2023-12-20T22:06:11.400Z,96067.34
2023-12-20T22:08:39.742Z,96070.59
2023-12-20T22:11:07.739Z,96073.22
2023-12-20T22:13:35.836Z,96066.50
2023-12-20T22:16:03.870Z,96059.69
2023-12-20T22:18:31.839Z,96042.91
2023-12-20T22:21:00.602Z,96051.22
2023-12-20T22:23:30.006Z,96047.69
2023-12-20T22:25:58.049Z,96047.13
2023-12-20T22:28:26.145Z,96054.34
2023-12-20T22:30:54.683Z,96041.13
2023-12-20T22:33:22.811Z,96042.91
2023-12-20T22:35:50.807Z,96050.78
2023-12-20T22:38:18.829Z,96053.00
2023-12-20T22:40:48.191Z,96045.28
2023-12-20T22:43:16.192Z,96043.84
2023-12-20T22:45:44.367Z,96052.75
2023-12-20T22:48:12.495Z,96050.22
2023-12-20T22:50:43.695Z,96058.75
2023-12-20T22:53:11.685Z,96036.31
2023-12-20T22:55:39.644Z,96028.59
2023-12-20T22:58:09.130Z,96032.19
2023-12-20T23:00:39.240Z,96029.66
2023-12-20T23:03:07.244Z,96037.22
2023-12-20T23:05:36.135Z,96024.44
2023-12-20T23:08:04.439Z,96022.69
2023-12-20T23:10:33.580Z,96031.81
2023-12-20T23:13:02.326Z,96015.84
2023-12-20T23:15:34.161Z,96022.53
2023-12-20T23:18:02.290Z,96018.31
2023-12-20T23:20:30.251Z,96017.50
2023-12-20T23:22:58.172Z,96014.88
2023-12-20T23:25:26.136Z,96003.81
2023-12-20T23:27:54.617Z,95987.91
2023-12-20T23:30:22.790Z,95994.63
2023-12-20T23:32:52.244Z,95972.88
2023-12-20T23:35:20.435Z,95959.50
2023-12-20T23:37:49.307Z,95955.19
2023-12-20T23:40:17.533Z,95970.31
2023-12-20T23:42:45.461Z,95961.75
2023-12-20T23:45:13.494Z,95970.22
2023-12-20T23:47:41.453Z,95950.00
2023-12-20T23:50:12.163Z,95950.97
2023-12-20T23:52:40.272Z,95940.91
2023-12-20T23:55:11.617Z,95943.28
2023-12-20T23:57:40.747Z,95936.75
